Observation data for Floydada on 08/14/2019      Previous  Date  Next       Current Mesonet Observations  Soil Data  Daily Summary Page  Observations in Plain Language
KFLS 140500Z 05006KT 23/18 A3014 RMK A01 T02340175  RH  071%=      5-min Rain = 0
KFLS 140505Z 04007KT 23/18 A3014 RMK A01 T02320175  RH  072%=      5-min Rain = 0
KFLS 140510Z 05006KT 23/18 A3014 RMK A01 T02310176  RH  073%=      5-min Rain = 0
KFLS 140515Z 05006KT 23/18 A3014 RMK A01 T02290176  RH  073%=      5-min Rain = 0
KFLS 140520Z 06006KT 23/18 A3014 RMK A01 T02270175  RH  074%=      5-min Rain = 0
KFLS 140525Z 06006KT 23/18 A3014 RMK A01 T02260175  RH  075%=      5-min Rain = 0
KFLS 140530Z 07006KT 23/18 A3013 RMK A01 T02260176  RH  075%=      5-min Rain = 0
KFLS 140535Z 06007KT 23/18 A3013 RMK A01 T02260176  RH  075%=      5-min Rain = 0
KFLS 140540Z 06007KT 23/18 A3013 RMK A01 T02280177  RH  075%=      5-min Rain = 0
KFLS 140545Z 05006KT 23/18 A3014 RMK A01 T02290177  RH  074%=      5-min Rain = 0
KFLS 140550Z 06006KT 23/18 A3014 RMK A01 T02280176  RH  074%=      5-min Rain = 0
KFLS 140555Z 06006KT 23/18 A3014 RMK A01 T02280176  RH  074%=      5-min Rain = 0
KFLS 140600Z 05007KT 23/18 A3014 RMK A01 T02280176  RH  074%=      5-min Rain = 0
KFLS 140605Z 04008KT 23/18 A3015 RMK A01 T02280176  RH  074%=      5-min Rain = 0
KFLS 140610Z 03008KT 23/18 A3015 RMK A01 T02260177  RH  076%=      5-min Rain = 0
KFLS 140615Z 04008KT 22/18 A3016 RMK A01 T02240177  RH  077%=      5-min Rain = 0
KFLS 140620Z 04008KT 22/18 A3016 RMK A01 T02240178  RH  077%=      5-min Rain = 0
KFLS 140625Z 04009KT 23/18 A3016 RMK A01 T02250180  RH  078%=      5-min Rain = 0
KFLS 140630Z 05010KT 23/18 A3016 RMK A01 T02260180  RH  077%=      5-min Rain = 0
KFLS 140635Z 05011KT 23/18 A3016 RMK A01 T02280181  RH  077%=      5-min Rain = 0
KFLS 140640Z 05010KT 23/18 A3016 RMK A01 T02300182  RH  077%=      5-min Rain = 0
KFLS 140645Z 05011G16KT 23/18 A3016 RMK A01 T02320183  RH  076%=      5-min Rain = 0
KFLS 140650Z 06011KT 24/18 A3016 RMK A01 T02350182  RH  074%=      5-min Rain = 0
KFLS 140655Z 07009KT 24/18 A3015 RMK A01 T02350181  RH  074%=      5-min Rain = 0
KFLS 140700Z 06010KT 24/18 A3016 RMK A01 T02360180  RH  073%=      5-min Rain = 0
KFLS 140705Z 06010KT 24/18 A3016 RMK A01 T02360180  RH  073%=      5-min Rain = 0
KFLS 140710Z 06011KT 24/18 A3016 RMK A01 T02360181  RH  073%=      5-min Rain = 0
KFLS 140715Z 07010KT 24/18 A3016 RMK A01 T02360181  RH  073%=      5-min Rain = 0
KFLS 140720Z 07010KT 24/18 A3015 RMK A01 T02350182  RH  074%=      5-min Rain = 0
KFLS 140725Z 06009KT 23/18 A3016 RMK A01 T02320181  RH  075%=      5-min Rain = 0
KFLS 140730Z 06011KT 23/18 A3016 RMK A01 T02330181  RH  075%=      5-min Rain = 0
KFLS 140735Z 07011KT 23/18 A3016 RMK A01 T02340181  RH  074%=      5-min Rain = 0
KFLS 140740Z 07011KT 23/18 A3015 RMK A01 T02330180  RH  074%=      5-min Rain = 0
KFLS 140745Z 07010KT 23/18 A3015 RMK A01 T02320179  RH  074%=      5-min Rain = 0
KFLS 140750Z 07011KT 23/18 A3014 RMK A01 T02330178  RH  073%=      5-min Rain = 0
KFLS 140755Z 07012KT 23/18 A3014 RMK A01 T02340177  RH  072%=      5-min Rain = 0
KFLS 140800Z 07011KT 23/18 A3014 RMK A01 T02320178  RH  073%=      5-min Rain = 0
KFLS 140805Z 07010KT 23/18 A3014 RMK A01 T02300178  RH  074%=      5-min Rain = 0
KFLS 140810Z 07009KT 23/18 A3014 RMK A01 T02290178  RH  075%=      5-min Rain = 0
KFLS 140815Z 07009KT 23/18 A3014 RMK A01 T02270178  RH  075%=      5-min Rain = 0
KFLS 140820Z 07009KT 23/18 A3014 RMK A01 T02270177  RH  076%=      5-min Rain = 0
KFLS 140825Z 08008KT 23/18 A3014 RMK A01 T02260177  RH  076%=      5-min Rain = 0
KFLS 140830Z 07008KT 22/18 A3014 RMK A01 T02240177  RH  076%=      5-min Rain = 0
KFLS 140835Z 07007KT 22/18 A3014 RMK A01 T02220177  RH  077%=      5-min Rain = 0
KFLS 140840Z 07006KT 22/18 A3014 RMK A01 T02190176  RH  078%=      5-min Rain = 0
KFLS 140845Z 07006KT 22/18 A3014 RMK A01 T02160175  RH  080%=      5-min Rain = 0
KFLS 140850Z 07006KT 21/18 A3014 RMK A01 T02140175  RH  080%=      5-min Rain = 0
KFLS 140855Z 06008KT 21/18 A3015 RMK A01 T02140175  RH  080%=      5-min Rain = 0
KFLS 140900Z 03010KT 21/18 A3016 RMK A01 T02130176  RH  081%=      5-min Rain = 0
KFLS 140905Z 05009KT 21/18 A3015 RMK A01 T02130177  RH  082%=      5-min Rain = 0
KFLS 140910Z 05009KT 21/18 A3015 RMK A01 T02130177  RH  082%=      5-min Rain = 0
KFLS 140915Z 05010KT 21/18 A3015 RMK A01 T02140176  RH  081%=      5-min Rain = 0
KFLS 140920Z 04011KT 22/18 A3016 RMK A01 T02150177  RH  081%=      5-min Rain = 0
KFLS 140925Z 04011KT 21/18 A3016 RMK A01 T02140177  RH  081%=      5-min Rain = 0
KFLS 140930Z 04011KT 21/18 A3016 RMK A01 T02120176  RH  082%=      5-min Rain = 0
KFLS 140935Z 04012KT 21/18 A3016 RMK A01 T02110175  RH  082%=      5-min Rain = 0
KFLS 140940Z 04011KT 21/17 A3016 RMK A01 T02090173  RH  082%=      5-min Rain = 0
KFLS 140945Z 04011KT 21/17 A3017 RMK A01 T02080173  RH  082%=      5-min Rain = 0
KFLS 140950Z 03010KT 21/17 A3017 RMK A01 T02060173  RH  083%=      5-min Rain = 0
KFLS 140955Z 02010KT 20/17 A3018 RMK A01 T02040170  RH  083%=      5-min Rain = 0
KFLS 141000Z 03012G18KT 20/16 A3018 RMK A01 T02020163  RH  080%=      5-min Rain = 0
KFLS 141005Z 03013KT 20/16 A3018 RMK A01 T02000155  RH  077%=      5-min Rain = 0
KFLS 141010Z 04013KT 20/15 A3017 RMK A01 T01990151  RH  075%=      5-min Rain = 0
KFLS 141015Z 04011KT 20/15 A3017 RMK A01 T01970149  RH  076%=      5-min Rain = 0
KFLS 141020Z 03013KT 20/15 A3017 RMK A01 T01950147  RH  075%=      5-min Rain = 0
KFLS 141025Z 03013KT 19/15 A3018 RMK A01 T01940145  RH  075%=      5-min Rain = 0
KFLS 141030Z 03013KT 19/14 A3018 RMK A01 T01940143  RH  074%=      5-min Rain = 0
KFLS 141035Z 02012KT 19/14 A3019 RMK A01 T01930141  RH  073%=      5-min Rain = 0
KFLS 141040Z 02013KT 19/14 A3019 RMK A01 T01920141  RH  074%=      5-min Rain = 0
KFLS 141045Z 03012G18KT 19/14 A3019 RMK A01 T01920140  RH  074%=      5-min Rain = 0
KFLS 141050Z 03011KT 19/14 A3019 RMK A01 T01900140  RH  074%=      5-min Rain = 0
KFLS 141055Z 03013KT 19/14 A3019 RMK A01 T01890138  RH  073%=      5-min Rain = 0
KFLS 141100Z 04012G17KT 19/14 A3019 RMK A01 T01890138  RH  074%=      5-min Rain = 0
KFLS 141105Z 03013G18KT 19/14 A3019 RMK A01 T01880137  RH  074%=      5-min Rain = 0
KFLS 141110Z 03013KT 19/14 A3019 RMK A01 T01870137  RH  074%=      5-min Rain = 0
KFLS 141115Z 03011G16KT 19/14 A3019 RMK A01 T01870137  RH  074%=      5-min Rain = 0
KFLS 141120Z 03012G17KT 19/14 A302 RMK A01 T01860137  RH  075%=      5-min Rain = 0
KFLS 141125Z 03012G18KT 19/14 A302 RMK A01 T01850138  RH  075%=      5-min Rain = 0
KFLS 141130Z 03012KT 19/14 A302 RMK A01 T01850137  RH  075%=      5-min Rain = 0
KFLS 141135Z 02012KT 18/14 A3021 RMK A01 T01840137  RH  076%=      5-min Rain = 0
KFLS 141140Z 02012G17KT 18/14 A302 RMK A01 T01830137  RH  076%=      5-min Rain = 0
KFLS 141145Z 02011KT 18/14 A302 RMK A01 T01830138  RH  076%=      5-min Rain = 0
KFLS 141150Z 02010KT 18/14 A3021 RMK A01 T01820137  RH  077%=      5-min Rain = 0
KFLS 141155Z 02010KT 18/14 A302 RMK A01 T01820137  RH  077%=      5-min Rain = 0
KFLS 141200Z 03010KT 18/14 A3021 RMK A01 T01820137  RH  077%=      5-min Rain = 0
KFLS 141205Z 02010KT 18/14 A3021 RMK A01 T01810138  RH  078%=      5-min Rain = 0
KFLS 141210Z 03010KT 18/14 A3021 RMK A01 T01810138  RH  077%=      5-min Rain = 0
KFLS 141215Z 03009KT 18/14 A3021 RMK A01 T01810138  RH  078%=      5-min Rain = 0
KFLS 141220Z 02009KT 18/14 A3022 RMK A01 T01820138  RH  077%=      5-min Rain = 0
KFLS 141225Z 02010KT 18/14 A3022 RMK A01 T01830139  RH  077%=      5-min Rain = 0
KFLS 141230Z 02010KT 19/14 A3022 RMK A01 T01850140  RH  076%=      5-min Rain = 0
KFLS 141235Z 02010KT 19/14 A3022 RMK A01 T01870140  RH  076%=      5-min Rain = 0
KFLS 141240Z 02011KT 19/14 A3022 RMK A01 T01890141  RH  075%=      5-min Rain = 0
KFLS 141245Z 01010KT 19/14 A3022 RMK A01 T01910142  RH  075%=      5-min Rain = 0
KFLS 141250Z 01009KT 19/14 A3023 RMK A01 T01930143  RH  074%=      5-min Rain = 0
KFLS 141255Z 02010KT 20/14 A3022 RMK A01 T01950143  RH  073%=      5-min Rain = 0
KFLS 141300Z 02011KT 20/14 A3023 RMK A01 T01980144  RH  073%=      5-min Rain = 0
KFLS 141305Z 02009KT 20/15 A3023 RMK A01 T02000145  RH  072%=      5-min Rain = 0
KFLS 141310Z 02010KT 20/15 A3023 RMK A01 T02010145  RH  071%=      5-min Rain = 0
KFLS 141315Z 01011KT 20/15 A3023 RMK A01 T02030145  RH  071%=      5-min Rain = 0
KFLS 141320Z 01010KT 21/15 A3024 RMK A01 T02050146  RH  070%=      5-min Rain = 0
KFLS 141325Z 03008KT 21/15 A3023 RMK A01 T02080147  RH  069%=      5-min Rain = 0
KFLS 141330Z 02009KT 21/15 A3024 RMK A01 T02120148  RH  068%=      5-min Rain = 0
KFLS 141335Z 03008KT 22/15 A3024 RMK A01 T02170150  RH  067%=      5-min Rain = 0
KFLS 141340Z 05007KT 22/15 A3023 RMK A01 T02190150  RH  066%=      5-min Rain = 0
KFLS 141345Z 05007KT 22/15 A3023 RMK A01 T02240150  RH  065%=      5-min Rain = 0
KFLS 141350Z 03009KT 23/15 A3024 RMK A01 T02250151  RH  064%=      5-min Rain = 0
KFLS 141355Z 03009KT 23/15 A3024 RMK A01 T02270151  RH  064%=      5-min Rain = 0
KFLS 141400Z 01010KT 23/15 A3024 RMK A01 T02310153  RH  062%=      5-min Rain = 0
KFLS 141405Z 02008KT 23/15 A3024 RMK A01 T02330154  RH  062%=      5-min Rain = 0
KFLS 141410Z 01009KT 24/16 A3024 RMK A01 T02370155  RH  061%=      5-min Rain = 0
KFLS 141415Z 02008KT 24/16 A3025 RMK A01 T02420155  RH  060%=      5-min Rain = 0
KFLS 141420Z 01008KT 24/15 A3025 RMK A01 T02410154  RH  059%=      5-min Rain = 0
KFLS 141425Z 00008KT 24/15 A3025 RMK A01 T02420154  RH  059%=      5-min Rain = 0
KFLS 141430Z 01009KT 25/16 A3026 RMK A01 T02450155  RH  059%=      5-min Rain = 0
KFLS 141435Z 36009KT 25/16 A3026 RMK A01 T02480155  RH  057%=      5-min Rain = 0
KFLS 141440Z 01008KT 25/16 A3026 RMK A01 T02490156  RH  057%=      5-min Rain = 0
KFLS 141445Z 01009KT 25/16 A3026 RMK A01 T02500155  RH  057%=      5-min Rain = 0
KFLS 141450Z 00008KT 25/16 A3026 RMK A01 T02530157  RH  056%=      5-min Rain = 0
KFLS 141455Z 01009KT 26/16 A3026 RMK A01 T02560157  RH  056%=      5-min Rain = 0
KFLS 141500Z 01007KT 25/16 A3026 RMK A01 T02530155  RH  056%=      5-min Rain = 0
KFLS 141505Z 35006KT 25/16 A3025 RMK A01 T02490155  RH  057%=      5-min Rain = 0
KFLS 141510Z 36008KT 25/16 A3025 RMK A01 T02540155  RH  056%=      5-min Rain = 0
KFLS 141515Z 36008KT 26/16 A3025 RMK A01 T02580155  RH  054%=      5-min Rain = 0
KFLS 141520Z 02008KT 26/15 A3025 RMK A01 T02560154  RH  054%=      5-min Rain = 0
KFLS 141525Z 01007KT 26/16 A3024 RMK A01 T02610155  RH  053%=      5-min Rain = 0
KFLS 141530Z 04007KT 27/16 A3024 RMK A01 T02650155  RH  052%=      5-min Rain = 0
KFLS 141535Z 05007KT 27/16 A3024 RMK A01 T02650155  RH  052%=      5-min Rain = 0
KFLS 141540Z 05007KT 27/16 A3023 RMK A01 T02700155  RH  050%=      5-min Rain = 0
KFLS 141545Z 03008KT 27/16 A3023 RMK A01 T02740155  RH  049%=      5-min Rain = 0
KFLS 141550Z 06006KT 27/16 A3023 RMK A01 T02710155  RH  050%=      5-min Rain = 0
KFLS 141555Z 06004KT 27/16 A3023 RMK A01 T02700155  RH  051%=      5-min Rain = 0
KFLS 141600Z 05007KT 27/15 A3023 RMK A01 T02740154  RH  049%=      5-min Rain = 0
KFLS 141605Z 04006KT 28/16 A3023 RMK A01 T02750155  RH  049%=      5-min Rain = 0
KFLS 141610Z 05006KT 27/15 A3023 RMK A01 T02730154  RH  049%=      5-min Rain = 0
KFLS 141615Z 08006KT 28/15 A3022 RMK A01 T02800154  RH  047%=      5-min Rain = 0
KFLS 141620Z 08005KT 28/15 A3022 RMK A01 T02760152  RH  048%=      5-min Rain = 0
KFLS 141625Z 09005KT 28/15 A3021 RMK A01 T02770151  RH  047%=      5-min Rain = 0
KFLS 141630Z 08005G10KT 28/15 A3021 RMK A01 T02750150  RH  047%=      5-min Rain = 0
KFLS 141635Z 10005KT 28/15 A3021 RMK A01 T02780150  RH  047%=      5-min Rain = 0
KFLS 141640Z 10006KT 28/15 A3021 RMK A01 T02800150  RH  046%=      5-min Rain = 0
KFLS 141645Z 09006G11KT 28/15 A3021 RMK A01 T02830150  RH  045%=      5-min Rain = 0
KFLS 141650Z 09006KT 30/15 A302 RMK A01 T02950150  RH  042%=      5-min Rain = 0
KFLS 141655Z 08006KT 30/15 A302 RMK A01 T02980147  RH  041%=      5-min Rain = 0
KFLS 141700Z 08007KT 30/14 A302 RMK A01 T03010141  RH  039%=      5-min Rain = 0
KFLS 141705Z 08006G12KT 31/14 A302 RMK A01 T03050138  RH  037%=      5-min Rain = 0
KFLS 141710Z 06008G14KT 31/13 A302 RMK A01 T03070133  RH  035%=      5-min Rain = 0
KFLS 141715Z 08007G12KT 31/13 A302 RMK A01 T03070130  RH  034%=      5-min Rain = 0
KFLS 141720Z 10009G14KT 31/13 A3019 RMK A01 T03120127  RH  033%=      5-min Rain = 0
KFLS 141725Z 10008G14KT 31/13 A3019 RMK A01 T03110129  RH  033%=      5-min Rain = 0
KFLS 141730Z 07011KT 31/13 A3019 RMK A01 T03140127  RH  032%=      5-min Rain = 0
KFLS 141735Z 05011G17KT 32/12 A3019 RMK A01 T03160121  RH  031%=      5-min Rain = 0
KFLS 141740Z 04011G16KT 32/12 A3019 RMK A01 T03180116  RH  030%=      5-min Rain = 0
KFLS 141745Z 04012G17KT 32/12 A3019 RMK A01 T03230115  RH  028%=      5-min Rain = 0
KFLS 141750Z 04011KT 32/12 A3019 RMK A01 T03200115  RH  029%=      5-min Rain = 0
KFLS 141755Z 05010KT 32/11 A3019 RMK A01 T03220114  RH  029%=      5-min Rain = 0
KFLS 141800Z 04012G18KT 32/11 A3019 RMK A01 T03230108  RH  027%=      5-min Rain = 0
KFLS 141805Z 04009G15KT 33/11 A3019 RMK A01 T03270108  RH  027%=      5-min Rain = 0
KFLS 141810Z 05011G17KT 33/11 A3019 RMK A01 T03320110  RH  026%=      5-min Rain = 0
KFLS 141815Z 02011KT 32/10 A3018 RMK A01 T03240104  RH  026%=      5-min Rain = 0
KFLS 141820Z 03011G18KT 33/11 A3018 RMK A01 T03310105  RH  025%=      5-min Rain = 0
KFLS 141825Z 05012G18KT 33/11 A3018 RMK A01 T03320106  RH  026%=      5-min Rain = 0
KFLS 141830Z 05011G17KT 33/11 A3019 RMK A01 T03330108  RH  026%=      5-min Rain = 0
KFLS 141835Z 04011G18KT 33/10 A3018 RMK A01 T03250102  RH  026%=      5-min Rain = 0
KFLS 141840Z 03014KT 33/11 A3019 RMK A01 T03310105  RH  026%=      5-min Rain = 0
KFLS 141845Z 03010G16KT 33/11 A3019 RMK A01 T03260108  RH  027%=      5-min Rain = 0
KFLS 141850Z 03011G16KT 33/11 A3018 RMK A01 T03290112  RH  027%=      5-min Rain = 0
KFLS 141855Z 03011G16KT 33/11 A3018 RMK A01 T03290110  RH  027%=      5-min Rain = 0
KFLS 141900Z 04010G16KT 33/11 A3019 RMK A01 T03310111  RH  027%=      5-min Rain = 0
KFLS 141905Z 04010G18KT 33/11 A3019 RMK A01 T03300112  RH  027%=      5-min Rain = 0
KFLS 141910Z 01011KT 33/11 A3018 RMK A01 T03280110  RH  027%=      5-min Rain = 0
KFLS 141915Z 04009KT 33/12 A3019 RMK A01 T03260116  RH  028%=      5-min Rain = 0
KFLS 141920Z 06007G14KT 33/12 A3018 RMK A01 T03270117  RH  028%=      5-min Rain = 0
KFLS 141925Z 04011G17KT 33/12 A3018 RMK A01 T03300119  RH  028%=      5-min Rain = 0
KFLS 141930Z 05008G15KT 33/12 A3018 RMK A01 T03270122  RH  029%=      5-min Rain = 0
KFLS 141935Z 03007G12KT 33/12 A3018 RMK A01 T03250124  RH  030%=      5-min Rain = 0
KFLS 141940Z 04009G15KT 33/13 A3017 RMK A01 T03300125  RH  029%=      5-min Rain = 0
KFLS 141945Z 03008G14KT 33/12 A3017 RMK A01 T03300121  RH  029%=      5-min Rain = 0
KFLS 141950Z 09007KT 33/12 A3016 RMK A01 T03300118  RH  028%=      5-min Rain = 0
KFLS 141955Z 04006G12KT 33/12 A3016 RMK A01 T03290123  RH  029%=      5-min Rain = 0
KFLS 142000Z 02007KT 33/13 A3016 RMK A01 T03300125  RH  029%=      5-min Rain = 0
KFLS 142005Z 03003G10KT 33/13 A3016 RMK A01 T03280126  RH  030%=      5-min Rain = 0
KFLS 142010Z 05008KT 33/12 A3015 RMK A01 T03330121  RH  028%=      5-min Rain = 0
KFLS 142015Z 05006G11KT 33/12 A3014 RMK A01 T03280123  RH  029%=      5-min Rain = 0
KFLS 142020Z 05007KT 33/12 A3014 RMK A01 T03340124  RH  028%=      5-min Rain = 0
KFLS 142025Z 35006G12KT 33/12 A3014 RMK A01 T03300119  RH  028%=      5-min Rain = 0
KFLS 142030Z 07005KT 33/12 A3013 RMK A01 T03320118  RH  028%=      5-min Rain = 0
KFLS 142035Z 07005G10KT 33/12 A3013 RMK A01 T03270115  RH  028%=      5-min Rain = 0
KFLS 142040Z 06005KT 33/11 A3013 RMK A01 T03320113  RH  027%=      5-min Rain = 0
KFLS 142045Z 13004G11KT 34/12 A3012 RMK A01 T03350115  RH  027%=      5-min Rain = 0
KFLS 142050Z 06005KT 34/12 A3012 RMK A01 T03360117  RH  027%=      5-min Rain = 0
KFLS 142055Z 05008KT 34/11 A3012 RMK A01 T03370113  RH  026%=      5-min Rain = 0
KFLS 142100Z 01006KT 33/11 A3012 RMK A01 T03340113  RH  027%=      5-min Rain = 0
KFLS 142105Z 01002KT 34/11 A3011 RMK A01 T03370111  RH  026%=      5-min Rain = 0
KFLS 142110Z 12002KT 34/11 A3011 RMK A01 T03360105  RH  025%=      5-min Rain = 0
KFLS 142115Z 10006G12KT 34/11 A3011 RMK A01 T03390110  RH  025%=      5-min Rain = 0
KFLS 142120Z 05005G10KT 34/12 A3011 RMK A01 T03360117  RH  027%=      5-min Rain = 0
KFLS 142125Z 01006KT 34/12 A3011 RMK A01 T03370116  RH  027%=      5-min Rain = 0
KFLS 142130Z 03004KT 34/12 A3011 RMK A01 T03440117  RH  026%=      5-min Rain = 0
KFLS 142135Z 05008KT 35/12 A301 RMK A01 T03480122  RH  026%=      5-min Rain = 0
KFLS 142140Z 06007KT 34/12 A301 RMK A01 T03430122  RH  027%=      5-min Rain = 0
KFLS 142145Z 09005G12KT 34/12 A301 RMK A01 T03400119  RH  027%=      5-min Rain = 0
KFLS 142150Z 12005G11KT 34/12 A301 RMK A01 T03380118  RH  027%=      5-min Rain = 0
KFLS 142155Z 07005G11KT 34/12 A301 RMK A01 T03390116  RH  026%=      5-min Rain = 0
KFLS 142200Z 04005KT 34/12 A301 RMK A01 T03410115  RH  026%=      5-min Rain = 0
KFLS 142205Z 02006KT 34/12 A301 RMK A01 T03440115  RH  025%=      5-min Rain = 0
KFLS 142210Z 01006KT 35/11 A301 RMK A01 T03480113  RH  025%=      5-min Rain = 0
KFLS 142215Z 03008KT 34/11 A301 RMK A01 T03430109  RH  025%=      5-min Rain = 0
KFLS 142220Z 35006KT 34/11 A301 RMK A01 T03380107  RH  025%=      5-min Rain = 0
KFLS 142225Z 29003KT 34/11 A3009 RMK A01 T03380109  RH  025%=      5-min Rain = 0
KFLS 142230Z 35002KT 34/11 A3009 RMK A01 T03430107  RH  024%=      5-min Rain = 0
KFLS 142235Z 11003KT 35/11 A3009 RMK A01 T03460111  RH  024%=      5-min Rain = 0
KFLS 142240Z 01004KT 34/11 A3009 RMK A01 T03420107  RH  024%=      5-min Rain = 0
KFLS 142245Z 01006KT 34/11 A3009 RMK A01 T03410108  RH  024%=      5-min Rain = 0
KFLS 142250Z 06007KT 34/11 A3009 RMK A01 T03390106  RH  025%=      5-min Rain = 0
KFLS 142255Z 01005KT 34/11 A3009 RMK A01 T03410107  RH  025%=      5-min Rain = 0
KFLS 142300Z 01005KT 34/11 A3009 RMK A01 T03440107  RH  024%=      5-min Rain = 0
KFLS 142305Z 02006KT 34/11 A3009 RMK A01 T03420106  RH  024%=      5-min Rain = 0
KFLS 142310Z 35006KT 34/10 A3009 RMK A01 T03400104  RH  024%=      5-min Rain = 0
KFLS 142315Z 35005KT 34/11 A3009 RMK A01 T03390105  RH  024%=      5-min Rain = 0
KFLS 142320Z 06004G10KT 34/11 A3009 RMK A01 T03400111  RH  025%=      5-min Rain = 0
KFLS 142325Z 08005KT 34/12 A3009 RMK A01 T03370120  RH  027%=      5-min Rain = 0
KFLS 142330Z 06009KT 34/12 A3009 RMK A01 T03360121  RH  028%=      5-min Rain = 0
KFLS 142335Z 06010KT 33/12 A301 RMK A01 T03340123  RH  028%=      5-min Rain = 0
KFLS 142340Z 07008KT 33/12 A3009 RMK A01 T03330122  RH  028%=      5-min Rain = 0
KFLS 142345Z 08011KT 33/13 A3009 RMK A01 T03300125  RH  029%=      5-min Rain = 0
KFLS 142350Z 08006G11KT 33/12 A3009 RMK A01 T03300124  RH  029%=      5-min Rain = 0
KFLS 142355Z 04009KT 33/12 A3009 RMK A01 T03300121  RH  028%=      5-min Rain = 0
KFLS 150000Z 05010KT 33/12 A3009 RMK A01 T03300120  RH  028%=      5-min Rain = 0
KFLS 150005Z 06009KT 33/12 A3009 RMK A01 T03280118  RH  028%=      5-min Rain = 0
KFLS 150010Z 06010KT 33/12 A3009 RMK A01 T03270119  RH  029%=      5-min Rain = 0
KFLS 150015Z 05009KT 33/12 A3009 RMK A01 T03250119  RH  029%=      5-min Rain = 0
KFLS 150020Z 05008KT 32/12 A3009 RMK A01 T03230118  RH  029%=      5-min Rain = 0
KFLS 150025Z 06009KT 32/12 A3009 RMK A01 T03220119  RH  029%=      5-min Rain = 0
KFLS 150030Z 07007KT 32/12 A3009 RMK A01 T03200120  RH  030%=      5-min Rain = 0
KFLS 150035Z 07008KT 32/12 A3009 RMK A01 T03190120  RH  030%=      5-min Rain = 0
KFLS 150040Z 08008KT 31/12 A3009 RMK A01 T03140119  RH  031%=      5-min Rain = 0
KFLS 150045Z 08008KT 31/12 A3009 RMK A01 T03090120  RH  032%=      5-min Rain = 0
KFLS 150050Z 08007KT 31/12 A301 RMK A01 T03110121  RH  032%=      5-min Rain = 0
KFLS 150055Z 08007KT 31/12 A301 RMK A01 T03100121  RH  032%=      5-min Rain = 0
KFLS 150100Z 10007KT 31/13 A301 RMK A01 T03070129  RH  034%=      5-min Rain = 0
KFLS 150105Z 11007KT 30/13 A301 RMK A01 T03020134  RH  036%=      5-min Rain = 0
KFLS 150110Z 11007KT 30/14 A301 RMK A01 T02970136  RH  038%=      5-min Rain = 0
KFLS 150115Z 10008KT 30/14 A301 RMK A01 T02960138  RH  039%=      5-min Rain = 0
KFLS 150120Z 09010KT 30/14 A3011 RMK A01 T02950139  RH  039%=      5-min Rain = 0
KFLS 150125Z 08008KT 29/14 A3011 RMK A01 T02930141  RH  040%=      5-min Rain = 0
KFLS 150130Z 08007KT 29/14 A3011 RMK A01 T02890142  RH  041%=      5-min Rain = 0
KFLS 150135Z 08008KT 29/14 A3011 RMK A01 T02870141  RH  042%=      5-min Rain = 0
KFLS 150140Z 08008KT 29/14 A3011 RMK A01 T02850141  RH  042%=      5-min Rain = 0
KFLS 150145Z 09007KT 28/14 A3012 RMK A01 T02830141  RH  043%=      5-min Rain = 0
KFLS 150150Z 09007KT 28/14 A3012 RMK A01 T02790142  RH  044%=      5-min Rain = 0
KFLS 150155Z 09007KT 27/14 A3012 RMK A01 T02740143  RH  046%=      5-min Rain = 0
KFLS 150200Z 09007KT 27/14 A3012 RMK A01 T02720144  RH  046%=      5-min Rain = 0
KFLS 150205Z 10006KT 27/14 A3013 RMK A01 T02690144  RH  047%=      5-min Rain = 0
KFLS 150210Z 10006KT 26/14 A3013 RMK A01 T02640144  RH  049%=      5-min Rain = 0
KFLS 150215Z 10007KT 26/14 A3013 RMK A01 T02610143  RH  049%=      5-min Rain = 0
KFLS 150220Z 09007KT 26/14 A3014 RMK A01 T02600143  RH  049%=      5-min Rain = 0
KFLS 150225Z 08007KT 26/14 A3014 RMK A01 T02580143  RH  050%=      5-min Rain = 0
KFLS 150230Z 09006KT 26/14 A3014 RMK A01 T02560143  RH  051%=      5-min Rain = 0
KFLS 150235Z 10007KT 26/14 A3014 RMK A01 T02550143  RH  051%=      5-min Rain = 0
KFLS 150240Z 09007KT 26/14 A3014 RMK A01 T02550143  RH  051%=      5-min Rain = 0
KFLS 150245Z 09007KT 25/14 A3014 RMK A01 T02540143  RH  051%=      5-min Rain = 0
KFLS 150250Z 09007KT 25/14 A3014 RMK A01 T02500142  RH  052%=      5-min Rain = 0
KFLS 150255Z 09006KT 25/14 A3015 RMK A01 T02480142  RH  053%=      5-min Rain = 0
KFLS 150300Z 10007KT 25/14 A3015 RMK A01 T02470142  RH  053%=      5-min Rain = 0
KFLS 150305Z 10007KT 25/14 A3015 RMK A01 T02470141  RH  053%=      5-min Rain = 0
KFLS 150310Z 10007KT 25/14 A3015 RMK A01 T02480141  RH  052%=      5-min Rain = 0
KFLS 150315Z 10007KT 25/14 A3016 RMK A01 T02480140  RH  052%=      5-min Rain = 0
KFLS 150320Z 10008KT 25/14 A3016 RMK A01 T02490140  RH  052%=      5-min Rain = 0
KFLS 150325Z 09008KT 25/14 A3016 RMK A01 T02530140  RH  050%=      5-min Rain = 0
KFLS 150330Z 09008KT 25/14 A3016 RMK A01 T02530139  RH  050%=      5-min Rain = 0
KFLS 150335Z 09008KT 25/14 A3016 RMK A01 T02530138  RH  050%=      5-min Rain = 0
KFLS 150340Z 09008KT 25/14 A3016 RMK A01 T02530139  RH  050%=      5-min Rain = 0
KFLS 150345Z 10008KT 25/14 A3016 RMK A01 T02510139  RH  051%=      5-min Rain = 0
KFLS 150350Z 09008KT 25/14 A3016 RMK A01 T02510139  RH  051%=      5-min Rain = 0
KFLS 150355Z 10008KT 25/14 A3017 RMK A01 T02490139  RH  051%=      5-min Rain = 0
KFLS 150400Z 10008KT 25/14 A3017 RMK A01 T02480140  RH  052%=      5-min Rain = 0
KFLS 150405Z 10008KT 25/14 A3017 RMK A01 T02480141  RH  052%=      5-min Rain = 0
KFLS 150410Z 10008KT 25/14 A3017 RMK A01 T02500143  RH  053%=      5-min Rain = 0
KFLS 150415Z 10007KT 25/14 A3017 RMK A01 T02470144  RH  054%=      5-min Rain = 0
KFLS 150420Z 11006KT 25/15 A3017 RMK A01 T02450145  RH  055%=      5-min Rain = 0
KFLS 150425Z 11007KT 25/15 A3018 RMK A01 T02450146  RH  055%=      5-min Rain = 0
KFLS 150430Z 11006KT 24/15 A3018 RMK A01 T02420146  RH  056%=      5-min Rain = 0
KFLS 150435Z 11006KT 24/15 A3017 RMK A01 T02400147  RH  057%=      5-min Rain = 0
KFLS 150440Z 11006KT 24/15 A3017 RMK A01 T02390147  RH  058%=      5-min Rain = 0
KFLS 150445Z 10006KT 24/15 A3018 RMK A01 T02380147  RH  058%=      5-min Rain = 0
KFLS 150450Z 10006KT 24/15 A3017 RMK A01 T02360148  RH  059%=      5-min Rain = 0
KFLS 150455Z 10006KT 24/15 A3017 RMK A01 T02350148  RH  059%=      5-min Rain = 0

Page generated in 0.0091 seconds.